sensor_id;sensor_type;location;lat;lon;timestamp;P1;durP1;ratioP1;P2;durP2;ratioP2
10729;SDS011;5416;59.258;18.128;2023-08-21T00:02:14;3.65;;;3.55;;
10729;SDS011;5416;59.258;18.128;2023-08-21T00:04:42;3.42;;;3.33;;
10729;SDS011;5416;59.258;18.128;2023-08-21T00:07:09;3.70;;;3.60;;
10729;SDS011;5416;59.258;18.128;2023-08-21T00:09:37;3.83;;;3.73;;
10729;SDS011;5416;59.258;18.128;2023-08-21T00:12:04;3.67;;;3.58;;
10729;SDS011;5416;59.258;18.128;2023-08-21T00:14:32;3.40;;;3.30;;
10729;SDS011;5416;59.258;18.128;2023-08-21T00:16:59;3.70;;;3.60;;
10729;SDS011;5416;59.258;18.128;2023-08-21T00:19:26;3.20;;;3.10;;
10729;SDS011;5416;59.258;18.128;2023-08-21T00:21:55;3.37;;;3.27;;
10729;SDS011;5416;59.258;18.128;2023-08-21T00:24:23;3.30;;;3.20;;
10729;SDS011;5416;59.258;18.128;2023-08-21T00:26:50;3.35;;;3.25;;
10729;SDS011;5416;59.258;18.128;2023-08-21T00:29:17;3.67;;;3.58;;
10729;SDS011;5416;59.258;18.128;2023-08-21T00:31:44;3.55;;;3.45;;
10729;SDS011;5416;59.258;18.128;2023-08-21T00:34:12;3.55;;;3.45;;
10729;SDS011;5416;59.258;18.128;2023-08-21T00:36:39;3.60;;;3.50;;
10729;SDS011;5416;59.258;18.128;2023-08-21T00:39:07;3.50;;;3.40;;
10729;SDS011;5416;59.258;18.128;2023-08-21T00:41:35;3.63;;;3.53;;
10729;SDS011;5416;59.258;18.128;2023-08-21T00:44:02;3.70;;;3.60;;
10729;SDS011;5416;59.258;18.128;2023-08-21T00:46:30;3.70;;;3.60;;
10729;SDS011;5416;59.258;18.128;2023-08-21T00:48:57;3.97;;;3.88;;
10729;SDS011;5416;59.258;18.128;2023-08-21T00:51:25;3.72;;;3.63;;
10729;SDS011;5416;59.258;18.128;2023-08-21T00:53:52;3.55;;;3.45;;
10729;SDS011;5416;59.258;18.128;2023-08-21T00:56:21;3.80;;;3.70;;
10729;SDS011;5416;59.258;18.128;2023-08-21T00:58:48;3.63;;;3.53;;
10729;SDS011;5416;59.258;18.128;2023-08-21T01:01:15;3.85;;;3.75;;
10729;SDS011;5416;59.258;18.128;2023-08-21T01:03:44;3.83;;;3.72;;
10729;SDS011;5416;59.258;18.128;2023-08-21T01:06:12;3.28;;;3.17;;
10729;SDS011;5416;59.258;18.128;2023-08-21T01:08:40;3.45;;;3.35;;
10729;SDS011;5416;59.258;18.128;2023-08-21T01:11:10;3.78;;;3.67;;
10729;SDS011;5416;59.258;18.128;2023-08-21T01:13:47;3.40;;;3.30;;
10729;SDS011;5416;59.258;18.128;2023-08-21T01:16:15;3.13;;;3.03;;
10729;SDS011;5416;59.258;18.128;2023-08-21T01:18:43;3.40;;;3.30;;
10729;SDS011;5416;59.258;18.128;2023-08-21T01:21:11;3.45;;;3.35;;
10729;SDS011;5416;59.258;18.128;2023-08-21T01:23:40;3.67;;;3.58;;
10729;SDS011;5416;59.258;18.128;2023-08-21T01:26:08;3.67;;;3.58;;
10729;SDS011;5416;59.258;18.128;2023-08-21T01:28:35;3.55;;;3.45;;
10729;SDS011;5416;59.258;18.128;2023-08-21T01:31:05;3.55;;;3.45;;
10729;SDS011;5416;59.258;18.128;2023-08-21T01:33:35;3.65;;;3.55;;
10729;SDS011;5416;59.258;18.128;2023-08-21T01:36:04;3.58;;;3.47;;
10729;SDS011;5416;59.258;18.128;2023-08-21T01:38:32;3.10;;;3.00;;
10729;SDS011;5416;59.258;18.128;2023-08-21T01:41:01;3.20;;;3.10;;
10729;SDS011;5416;59.258;18.128;2023-08-21T01:43:29;3.47;;;3.38;;
10729;SDS011;5416;59.258;18.128;2023-08-21T01:45:56;3.42;;;3.33;;
10729;SDS011;5416;59.258;18.128;2023-08-21T01:48:23;3.50;;;3.40;;
10729;SDS011;5416;59.258;18.128;2023-08-21T01:50:51;3.03;;;2.92;;
10729;SDS011;5416;59.258;18.128;2023-08-21T01:53:18;3.67;;;3.58;;
10729;SDS011;5416;59.258;18.128;2023-08-21T01:55:45;3.20;;;3.10;;
10729;SDS011;5416;59.258;18.128;2023-08-21T01:58:14;3.25;;;3.15;;
10729;SDS011;5416;59.258;18.128;2023-08-21T02:00:41;3.58;;;3.47;;
10729;SDS011;5416;59.258;18.128;2023-08-21T02:03:08;3.80;;;3.70;;
10729;SDS011;5416;59.258;18.128;2023-08-21T02:05:38;3.65;;;3.55;;
10729;SDS011;5416;59.258;18.128;2023-08-21T02:08:06;3.78;;;3.67;;
10729;SDS011;5416;59.258;18.128;2023-08-21T02:10:33;3.90;;;3.80;;
10729;SDS011;5416;59.258;18.128;2023-08-21T02:13:01;3.72;;;3.63;;
10729;SDS011;5416;59.258;18.128;2023-08-21T02:15:29;3.38;;;3.28;;
10729;SDS011;5416;59.258;18.128;2023-08-21T02:17:56;3.72;;;3.63;;
10729;SDS011;5416;59.258;18.128;2023-08-21T02:20:24;3.43;;;3.33;;
10729;SDS011;5416;59.258;18.128;2023-08-21T02:22:51;3.83;;;3.72;;
10729;SDS011;5416;59.258;18.128;2023-08-21T02:25:18;3.55;;;3.45;;
10729;SDS011;5416;59.258;18.128;2023-08-21T02:27:45;3.80;;;3.70;;
10729;SDS011;5416;59.258;18.128;2023-08-21T02:30:13;3.65;;;3.55;;
10729;SDS011;5416;59.258;18.128;2023-08-21T02:32:41;3.53;;;3.42;;
10729;SDS011;5416;59.258;18.128;2023-08-21T02:35:09;3.67;;;3.58;;
10729;SDS011;5416;59.258;18.128;2023-08-21T02:37:36;3.55;;;3.45;;
10729;SDS011;5416;59.258;18.128;2023-08-21T02:40:05;3.42;;;3.33;;
10729;SDS011;5416;59.258;18.128;2023-08-21T02:42:34;3.40;;;3.30;;
10729;SDS011;5416;59.258;18.128;2023-08-21T02:45:01;3.40;;;3.30;;
10729;SDS011;5416;59.258;18.128;2023-08-21T02:47:33;3.10;;;3.00;;
10729;SDS011;5416;59.258;18.128;2023-08-21T02:50:02;3.53;;;3.42;;
10729;SDS011;5416;59.258;18.128;2023-08-21T02:52:29;3.38;;;3.28;;
10729;SDS011;5416;59.258;18.128;2023-08-21T02:54:56;3.65;;;3.55;;
10729;SDS011;5416;59.258;18.128;2023-08-21T02:57:24;3.70;;;3.60;;
10729;SDS011;5416;59.258;18.128;2023-08-21T02:59:51;3.80;;;3.70;;
10729;SDS011;5416;59.258;18.128;2023-08-21T03:02:18;4.05;;;3.95;;
10729;SDS011;5416;59.258;18.128;2023-08-21T03:04:45;3.40;;;3.30;;
10729;SDS011;5416;59.258;18.128;2023-08-21T03:07:14;4.15;;;4.05;;
10729;SDS011;5416;59.258;18.128;2023-08-21T03:09:44;3.58;;;3.47;;
10729;SDS011;5416;59.258;18.128;2023-08-21T03:12:12;3.78;;;3.67;;
10729;SDS011;5416;59.258;18.128;2023-08-21T03:14:39;3.40;;;3.30;;
10729;SDS011;5416;59.258;18.128;2023-08-21T03:17:06;3.80;;;3.70;;
10729;SDS011;5416;59.258;18.128;2023-08-21T03:19:34;3.37;;;3.27;;
10729;SDS011;5416;59.258;18.128;2023-08-21T03:22:01;4.07;;;3.97;;
10729;SDS011;5416;59.258;18.128;2023-08-21T03:24:29;4.13;;;4.03;;
10729;SDS011;5416;59.258;18.128;2023-08-21T03:26:57;3.90;;;3.80;;
10729;SDS011;5416;59.258;18.128;2023-08-21T03:29:24;3.53;;;3.43;;
10729;SDS011;5416;59.258;18.128;2023-08-21T03:31:52;3.40;;;3.30;;
10729;SDS011;5416;59.258;18.128;2023-08-21T03:34:19;3.92;;;3.83;;
10729;SDS011;5416;59.258;18.128;2023-08-21T03:36:47;3.83;;;3.72;;
10729;SDS011;5416;59.258;18.128;2023-08-21T03:39:14;3.70;;;3.60;;
10729;SDS011;5416;59.258;18.128;2023-08-21T03:41:42;3.60;;;3.50;;
10729;SDS011;5416;59.258;18.128;2023-08-21T03:44:10;3.60;;;3.50;;
10729;SDS011;5416;59.258;18.128;2023-08-21T03:46:37;3.67;;;3.58;;
10729;SDS011;5416;59.258;18.128;2023-08-21T03:49:04;3.58;;;3.47;;
10729;SDS011;5416;59.258;18.128;2023-08-21T03:51:32;3.65;;;3.55;;
10729;SDS011;5416;59.258;18.128;2023-08-21T03:53:59;3.70;;;3.60;;
10729;SDS011;5416;59.258;18.128;2023-08-21T03:56:26;3.50;;;3.40;;
10729;SDS011;5416;59.258;18.128;2023-08-21T03:58:55;3.67;;;3.57;;
10729;SDS011;5416;59.258;18.128;2023-08-21T04:01:22;3.63;;;3.53;;
10729;SDS011;5416;59.258;18.128;2023-08-21T04:03:50;3.65;;;3.55;;
10729;SDS011;5416;59.258;18.128;2023-08-21T04:06:17;3.45;;;3.35;;
10729;SDS011;5416;59.258;18.128;2023-08-21T04:08:44;3.13;;;3.03;;
10729;SDS011;5416;59.258;18.128;2023-08-21T04:11:12;3.47;;;3.38;;
10729;SDS011;5416;59.258;18.128;2023-08-21T04:13:39;3.63;;;3.53;;
10729;SDS011;5416;59.258;18.128;2023-08-21T04:16:08;3.58;;;3.47;;
10729;SDS011;5416;59.258;18.128;2023-08-21T04:18:35;3.30;;;3.20;;
10729;SDS011;5416;59.258;18.128;2023-08-21T04:21:03;3.90;;;3.80;;
10729;SDS011;5416;59.258;18.128;2023-08-21T04:23:31;3.60;;;3.50;;
10729;SDS011;5416;59.258;18.128;2023-08-21T04:26:00;3.70;;;3.60;;
10729;SDS011;5416;59.258;18.128;2023-08-21T04:28:28;3.20;;;3.10;;
10729;SDS011;5416;59.258;18.128;2023-08-21T04:30:55;3.40;;;3.30;;
10729;SDS011;5416;59.258;18.128;2023-08-21T04:33:24;3.50;;;3.40;;
10729;SDS011;5416;59.258;18.128;2023-08-21T04:35:52;3.40;;;3.30;;
10729;SDS011;5416;59.258;18.128;2023-08-21T04:38:19;3.53;;;3.42;;
10729;SDS011;5416;59.258;18.128;2023-08-21T04:40:46;3.35;;;3.25;;
10729;SDS011;5416;59.258;18.128;2023-08-21T04:43:13;3.45;;;3.35;;
10729;SDS011;5416;59.258;18.128;2023-08-21T04:45:46;3.40;;;3.30;;
10729;SDS011;5416;59.258;18.128;2023-08-21T04:48:13;3.17;;;3.08;;
10729;SDS011;5416;59.258;18.128;2023-08-21T04:50:42;3.45;;;3.35;;
10729;SDS011;5416;59.258;18.128;2023-08-21T04:53:09;3.50;;;3.40;;
10729;SDS011;5416;59.258;18.128;2023-08-21T04:55:37;3.40;;;3.30;;
10729;SDS011;5416;59.258;18.128;2023-08-21T04:58:05;3.35;;;3.25;;
10729;SDS011;5416;59.258;18.128;2023-08-21T05:00:32;3.25;;;3.15;;
10729;SDS011;5416;59.258;18.128;2023-08-21T05:03:00;3.33;;;3.22;;
10729;SDS011;5416;59.258;18.128;2023-08-21T05:05:27;3.20;;;3.10;;
10729;SDS011;5416;59.258;18.128;2023-08-21T05:07:56;3.22;;;3.13;;
10729;SDS011;5416;59.258;18.128;2023-08-21T05:10:23;3.20;;;3.10;;
10729;SDS011;5416;59.258;18.128;2023-08-21T05:12:51;3.50;;;3.40;;
10729;SDS011;5416;59.258;18.128;2023-08-21T05:15:18;3.43;;;3.33;;
10729;SDS011;5416;59.258;18.128;2023-08-21T05:17:45;3.35;;;3.25;;
10729;SDS011;5416;59.258;18.128;2023-08-21T05:20:13;3.45;;;3.35;;
10729;SDS011;5416;59.258;18.128;2023-08-21T05:22:40;3.67;;;3.58;;
10729;SDS011;5416;59.258;18.128;2023-08-21T05:25:09;3.77;;;3.67;;
10729;SDS011;5416;59.258;18.128;2023-08-21T05:27:37;3.47;;;3.37;;
10729;SDS011;5416;59.258;18.128;2023-08-21T05:30:05;3.83;;;3.72;;
10729;SDS011;5416;59.258;18.128;2023-08-21T05:32:32;3.83;;;3.72;;
10729;SDS011;5416;59.258;18.128;2023-08-21T05:34:59;3.47;;;3.38;;
10729;SDS011;5416;59.258;18.128;2023-08-21T05:37:27;3.55;;;3.45;;
10729;SDS011;5416;59.258;18.128;2023-08-21T05:39:54;3.75;;;3.65;;
10729;SDS011;5416;59.258;18.128;2023-08-21T05:42:22;3.30;;;3.20;;
10729;SDS011;5416;59.258;18.128;2023-08-21T05:44:50;3.42;;;3.33;;
10729;SDS011;5416;59.258;18.128;2023-08-21T05:47:17;3.40;;;3.30;;
10729;SDS011;5416;59.258;18.128;2023-08-21T05:49:44;3.08;;;2.97;;
10729;SDS011;5416;59.258;18.128;2023-08-21T05:52:12;3.55;;;3.45;;
10729;SDS011;5416;59.258;18.128;2023-08-21T05:54:40;3.53;;;3.42;;
10729;SDS011;5416;59.258;18.128;2023-08-21T05:57:07;3.42;;;3.33;;
10729;SDS011;5416;59.258;18.128;2023-08-21T05:59:42;3.15;;;3.05;;
10729;SDS011;5416;59.258;18.128;2023-08-21T06:02:09;3.60;;;3.50;;
10729;SDS011;5416;59.258;18.128;2023-08-21T06:04:37;3.40;;;3.30;;
10729;SDS011;5416;59.258;18.128;2023-08-21T06:07:04;3.83;;;3.72;;
10729;SDS011;5416;59.258;18.128;2023-08-21T06:09:31;3.67;;;3.58;;
10729;SDS011;5416;59.258;18.128;2023-08-21T06:11:59;5.93;;;5.73;;
10729;SDS011;5416;59.258;18.128;2023-08-21T06:14:27;3.45;;;3.35;;
10729;SDS011;5416;59.258;18.128;2023-08-21T06:16:56;3.85;;;3.75;;
10729;SDS011;5416;59.258;18.128;2023-08-21T06:19:24;3.63;;;3.53;;
10729;SDS011;5416;59.258;18.128;2023-08-21T06:21:51;3.55;;;3.45;;
10729;SDS011;5416;59.258;18.128;2023-08-21T06:24:18;3.90;;;3.80;;
10729;SDS011;5416;59.258;18.128;2023-08-21T06:26:46;3.70;;;3.60;;
10729;SDS011;5416;59.258;18.128;2023-08-21T06:29:13;3.60;;;3.50;;
10729;SDS011;5416;59.258;18.128;2023-08-21T06:31:40;3.50;;;3.40;;
10729;SDS011;5416;59.258;18.128;2023-08-21T06:34:09;3.65;;;3.55;;
10729;SDS011;5416;59.258;18.128;2023-08-21T06:36:36;3.53;;;3.43;;
10729;SDS011;5416;59.258;18.128;2023-08-21T06:39:04;3.70;;;3.60;;
10729;SDS011;5416;59.258;18.128;2023-08-21T06:41:32;3.60;;;3.50;;
10729;SDS011;5416;59.258;18.128;2023-08-21T06:43:59;3.40;;;3.30;;
10729;SDS011;5416;59.258;18.128;2023-08-21T06:46:26;3.47;;;3.38;;
10729;SDS011;5416;59.258;18.128;2023-08-21T06:48:53;3.55;;;3.45;;
10729;SDS011;5416;59.258;18.128;2023-08-21T06:51:22;3.95;;;3.85;;
10729;SDS011;5416;59.258;18.128;2023-08-21T06:53:50;3.67;;;3.58;;
10729;SDS011;5416;59.258;18.128;2023-08-21T06:56:17;3.45;;;3.35;;
10729;SDS011;5416;59.258;18.128;2023-08-21T06:58:44;3.35;;;3.25;;
10729;SDS011;5416;59.258;18.128;2023-08-21T07:01:11;3.60;;;3.50;;
10729;SDS011;5416;59.258;18.128;2023-08-21T07:03:39;3.90;;;3.80;;
10729;SDS011;5416;59.258;18.128;2023-08-21T07:06:06;3.90;;;3.80;;
10729;SDS011;5416;59.258;18.128;2023-08-21T07:08:35;3.80;;;3.70;;
10729;SDS011;5416;59.258;18.128;2023-08-21T07:11:03;3.73;;;3.63;;
10729;SDS011;5416;59.258;18.128;2023-08-21T07:13:30;3.80;;;3.70;;
10729;SDS011;5416;59.258;18.128;2023-08-21T07:15:57;3.55;;;3.45;;
10729;SDS011;5416;59.258;18.128;2023-08-21T07:18:27;3.63;;;3.53;;
10729;SDS011;5416;59.258;18.128;2023-08-21T07:20:55;3.70;;;3.60;;
10729;SDS011;5416;59.258;18.128;2023-08-21T07:23:22;3.50;;;3.40;;
10729;SDS011;5416;59.258;18.128;2023-08-21T07:25:50;3.85;;;3.75;;
10729;SDS011;5416;59.258;18.128;2023-08-21T07:28:18;3.60;;;3.50;;
10729;SDS011;5416;59.258;18.128;2023-08-21T07:30:45;3.50;;;3.40;;
10729;SDS011;5416;59.258;18.128;2023-08-21T07:33:12;3.03;;;2.92;;
10729;SDS011;5416;59.258;18.128;2023-08-21T07:35:39;3.20;;;3.10;;
10729;SDS011;5416;59.258;18.128;2023-08-21T07:38:07;3.08;;;2.97;;
10729;SDS011;5416;59.258;18.128;2023-08-21T07:40:34;3.17;;;3.08;;
10729;SDS011;5416;59.258;18.128;2023-08-21T07:43:03;3.13;;;3.03;;
10729;SDS011;5416;59.258;18.128;2023-08-21T07:45:30;3.65;;;3.55;;
10729;SDS011;5416;59.258;18.128;2023-08-21T07:47:57;3.70;;;3.60;;
10729;SDS011;5416;59.258;18.128;2023-08-21T07:50:25;3.85;;;3.75;;
10729;SDS011;5416;59.258;18.128;2023-08-21T07:52:52;3.83;;;3.72;;
10729;SDS011;5416;59.258;18.128;2023-08-21T07:55:19;3.80;;;3.70;;
10729;SDS011;5416;59.258;18.128;2023-08-21T07:57:46;3.67;;;3.58;;
10729;SDS011;5416;59.258;18.128;2023-08-21T08:00:15;3.60;;;3.50;;
10729;SDS011;5416;59.258;18.128;2023-08-21T08:02:42;3.13;;;3.03;;
10729;SDS011;5416;59.258;18.128;2023-08-21T08:05:10;3.10;;;3.00;;
10729;SDS011;5416;59.258;18.128;2023-08-21T08:07:37;3.20;;;3.10;;
10729;SDS011;5416;59.258;18.128;2023-08-21T08:10:05;3.05;;;2.95;;
10729;SDS011;5416;59.258;18.128;2023-08-21T08:12:32;3.40;;;3.30;;
10729;SDS011;5416;59.258;18.128;2023-08-21T08:14:59;3.22;;;3.13;;
10729;SDS011;5416;59.258;18.128;2023-08-21T08:17:28;3.60;;;3.50;;
10729;SDS011;5416;59.258;18.128;2023-08-21T08:19:55;3.60;;;3.50;;
10729;SDS011;5416;59.258;18.128;2023-08-21T08:22:23;3.50;;;3.40;;
10729;SDS011;5416;59.258;18.128;2023-08-21T08:24:50;3.50;;;3.40;;
10729;SDS011;5416;59.258;18.128;2023-08-21T08:27:17;3.05;;;2.95;;
10729;SDS011;5416;59.258;18.128;2023-08-21T08:29:45;3.38;;;3.28;;
10729;SDS011;5416;59.258;18.128;2023-08-21T08:32:12;3.17;;;3.08;;
10729;SDS011;5416;59.258;18.128;2023-08-21T08:34:41;3.30;;;3.20;;
10729;SDS011;5416;59.258;18.128;2023-08-21T08:37:11;3.38;;;3.28;;
10729;SDS011;5416;59.258;18.128;2023-08-21T08:39:39;3.40;;;3.30;;
10729;SDS011;5416;59.258;18.128;2023-08-21T08:42:06;3.20;;;3.10;;
10729;SDS011;5416;59.258;18.128;2023-08-21T08:44:34;3.20;;;3.10;;
10729;SDS011;5416;59.258;18.128;2023-08-21T08:47:03;3.17;;;3.08;;
10729;SDS011;5416;59.258;18.128;2023-08-21T08:49:30;3.22;;;3.13;;
10729;SDS011;5416;59.258;18.128;2023-08-21T08:51:59;3.40;;;3.30;;
10729;SDS011;5416;59.258;18.128;2023-08-21T08:54:27;3.25;;;3.15;;
10729;SDS011;5416;59.258;18.128;2023-08-21T08:56:56;3.50;;;3.40;;
10729;SDS011;5416;59.258;18.128;2023-08-21T08:59:23;3.70;;;3.60;;
10729;SDS011;5416;59.258;18.128;2023-08-21T09:01:51;3.72;;;3.63;;
10729;SDS011;5416;59.258;18.128;2023-08-21T09:04:18;3.47;;;3.37;;
10729;SDS011;5416;59.258;18.128;2023-08-21T09:06:45;3.70;;;3.60;;
10729;SDS011;5416;59.258;18.128;2023-08-21T09:09:14;3.60;;;3.50;;
10729;SDS011;5416;59.258;18.128;2023-08-21T09:11:42;3.65;;;3.55;;
10729;SDS011;5416;59.258;18.128;2023-08-21T09:14:09;3.20;;;3.10;;
10729;SDS011;5416;59.258;18.128;2023-08-21T09:16:37;3.20;;;3.10;;
10729;SDS011;5416;59.258;18.128;2023-08-21T09:19:04;3.30;;;3.20;;
10729;SDS011;5416;59.258;18.128;2023-08-21T09:21:32;3.00;;;2.90;;
10729;SDS011;5416;59.258;18.128;2023-08-21T09:24:00;3.07;;;2.97;;
10729;SDS011;5416;59.258;18.128;2023-08-21T09:26:30;2.92;;;2.83;;
10729;SDS011;5416;59.258;18.128;2023-08-21T09:28:58;2.90;;;2.80;;
10729;SDS011;5416;59.258;18.128;2023-08-21T09:31:29;3.10;;;3.00;;
10729;SDS011;5416;59.258;18.128;2023-08-21T09:33:57;2.90;;;2.80;;
10729;SDS011;5416;59.258;18.128;2023-08-21T09:36:24;3.03;;;2.93;;
10729;SDS011;5416;59.258;18.128;2023-08-21T09:38:51;3.00;;;2.90;;
10729;SDS011;5416;59.258;18.128;2023-08-21T09:41:19;3.40;;;3.30;;
10729;SDS011;5416;59.258;18.128;2023-08-21T09:43:48;3.30;;;3.20;;
10729;SDS011;5416;59.258;18.128;2023-08-21T09:46:16;3.25;;;3.15;;
10729;SDS011;5416;59.258;18.128;2023-08-21T09:48:44;3.40;;;3.30;;
10729;SDS011;5416;59.258;18.128;2023-08-21T09:51:11;3.45;;;3.35;;
10729;SDS011;5416;59.258;18.128;2023-08-21T09:53:39;3.20;;;3.10;;
10729;SDS011;5416;59.258;18.128;2023-08-21T09:56:07;3.90;;;3.80;;
10729;SDS011;5416;59.258;18.128;2023-08-21T09:58:34;3.67;;;3.58;;
10729;SDS011;5416;59.258;18.128;2023-08-21T10:01:04;3.47;;;3.38;;
10729;SDS011;5416;59.258;18.128;2023-08-21T10:03:36;3.50;;;3.40;;
10729;SDS011;5416;59.258;18.128;2023-08-21T10:06:05;3.47;;;3.38;;
10729;SDS011;5416;59.258;18.128;2023-08-21T10:08:32;3.20;;;3.10;;
10729;SDS011;5416;59.258;18.128;2023-08-21T10:11:04;3.40;;;3.30;;
10729;SDS011;5416;59.258;18.128;2023-08-21T10:13:32;3.40;;;3.30;;
10729;SDS011;5416;59.258;18.128;2023-08-21T10:15:59;3.60;;;3.50;;
10729;SDS011;5416;59.258;18.128;2023-08-21T10:18:30;3.33;;;3.22;;
10729;SDS011;5416;59.258;18.128;2023-08-21T10:21:10;3.53;;;3.42;;
10729;SDS011;5416;59.258;18.128;2023-08-21T10:23:37;3.30;;;3.20;;
10729;SDS011;5416;59.258;18.128;2023-08-21T10:26:06;3.00;;;2.90;;
10729;SDS011;5416;59.258;18.128;2023-08-21T10:28:43;3.40;;;3.30;;
10729;SDS011;5416;59.258;18.128;2023-08-21T10:31:25;2.90;;;2.80;;
10729;SDS011;5416;59.258;18.128;2023-08-21T10:33:54;3.00;;;2.90;;
10729;SDS011;5416;59.258;18.128;2023-08-21T10:36:40;3.05;;;2.95;;
10729;SDS011;5416;59.258;18.128;2023-08-21T10:39:12;2.83;;;2.72;;
10729;SDS011;5416;59.258;18.128;2023-08-21T10:41:52;2.92;;;2.83;;
10729;SDS011;5416;59.258;18.128;2023-08-21T10:44:33;2.78;;;2.67;;
10729;SDS011;5416;59.258;18.128;2023-08-21T10:47:12;2.90;;;2.80;;
10729;SDS011;5416;59.258;18.128;2023-08-21T10:49:43;3.10;;;3.00;;
10729;SDS011;5416;59.258;18.128;2023-08-21T10:52:10;2.92;;;2.83;;
10729;SDS011;5416;59.258;18.128;2023-08-21T10:54:45;3.00;;;2.90;;
10729;SDS011;5416;59.258;18.128;2023-08-21T10:57:12;3.00;;;2.90;;
10729;SDS011;5416;59.258;18.128;2023-08-21T10:59:48;2.90;;;2.80;;
10729;SDS011;5416;59.258;18.128;2023-08-21T11:02:16;3.40;;;3.30;;
10729;SDS011;5416;59.258;18.128;2023-08-21T11:04:44;3.60;;;3.50;;
10729;SDS011;5416;59.258;18.128;2023-08-21T11:07:12;3.70;;;3.60;;
10729;SDS011;5416;59.258;18.128;2023-08-21T11:09:39;3.80;;;3.70;;
10729;SDS011;5416;59.258;18.128;2023-08-21T11:12:07;3.60;;;3.50;;
10729;SDS011;5416;59.258;18.128;2023-08-21T11:14:34;3.38;;;3.28;;
10729;SDS011;5416;59.258;18.128;2023-08-21T11:17:02;3.40;;;3.30;;
10729;SDS011;5416;59.258;18.128;2023-08-21T11:19:30;3.25;;;3.15;;
10729;SDS011;5416;59.258;18.128;2023-08-21T11:21:59;3.30;;;3.20;;
10729;SDS011;5416;59.258;18.128;2023-08-21T11:24:39;3.60;;;3.50;;
10729;SDS011;5416;59.258;18.128;2023-08-21T11:27:07;3.40;;;3.30;;
10729;SDS011;5416;59.258;18.128;2023-08-21T11:29:36;3.10;;;3.00;;
10729;SDS011;5416;59.258;18.128;2023-08-21T11:32:07;3.05;;;2.95;;
10729;SDS011;5416;59.258;18.128;2023-08-21T11:34:34;3.35;;;3.25;;
10729;SDS011;5416;59.258;18.128;2023-08-21T11:37:03;3.55;;;3.45;;
10729;SDS011;5416;59.258;18.128;2023-08-21T11:39:43;3.53;;;3.42;;
10729;SDS011;5416;59.258;18.128;2023-08-21T11:42:11;3.40;;;3.30;;
10729;SDS011;5416;59.258;18.128;2023-08-21T11:44:42;3.85;;;3.75;;
10729;SDS011;5416;59.258;18.128;2023-08-21T11:47:10;3.67;;;3.58;;
10729;SDS011;5416;59.258;18.128;2023-08-21T11:49:39;3.78;;;3.67;;
10729;SDS011;5416;59.258;18.128;2023-08-21T11:52:09;3.50;;;3.40;;
10729;SDS011;5416;59.258;18.128;2023-08-21T11:54:37;3.53;;;3.42;;
10729;SDS011;5416;59.258;18.128;2023-08-21T11:57:06;3.58;;;3.47;;
10729;SDS011;5416;59.258;18.128;2023-08-21T11:59:33;3.50;;;3.40;;
10729;SDS011;5416;59.258;18.128;2023-08-21T12:02:01;3.80;;;3.70;;
10729;SDS011;5416;59.258;18.128;2023-08-21T12:04:29;3.42;;;3.33;;
10729;SDS011;5416;59.258;18.128;2023-08-21T12:06:57;3.78;;;3.67;;
10729;SDS011;5416;59.258;18.128;2023-08-21T12:09:25;3.90;;;3.80;;
10729;SDS011;5416;59.258;18.128;2023-08-21T12:11:53;3.80;;;3.70;;
10729;SDS011;5416;59.258;18.128;2023-08-21T12:14:20;3.67;;;3.57;;
10729;SDS011;5416;59.258;18.128;2023-08-21T12:16:48;3.97;;;3.88;;
10729;SDS011;5416;59.258;18.128;2023-08-21T12:19:15;4.10;;;4.00;;
10729;SDS011;5416;59.258;18.128;2023-08-21T12:21:42;4.20;;;4.10;;
10729;SDS011;5416;59.258;18.128;2023-08-21T12:24:10;4.30;;;4.20;;
10729;SDS011;5416;59.258;18.128;2023-08-21T12:26:39;4.32;;;4.22;;
10729;SDS011;5416;59.258;18.128;2023-08-21T12:29:06;3.47;;;3.37;;
10729;SDS011;5416;59.258;18.128;2023-08-21T12:31:33;3.38;;;3.28;;
10729;SDS011;5416;59.258;18.128;2023-08-21T12:34:02;3.55;;;3.45;;
10729;SDS011;5416;59.258;18.128;2023-08-21T12:36:29;3.63;;;3.53;;
10729;SDS011;5416;59.258;18.128;2023-08-21T12:38:57;3.50;;;3.40;;
10729;SDS011;5416;59.258;18.128;2023-08-21T12:41:24;3.40;;;3.30;;
10729;SDS011;5416;59.258;18.128;2023-08-21T12:43:53;3.20;;;3.10;;
10729;SDS011;5416;59.258;18.128;2023-08-21T12:46:21;3.30;;;3.20;;
10729;SDS011;5416;59.258;18.128;2023-08-21T12:48:48;3.47;;;3.38;;
10729;SDS011;5416;59.258;18.128;2023-08-21T12:51:15;3.30;;;3.20;;
10729;SDS011;5416;59.258;18.128;2023-08-21T12:53:42;3.20;;;3.10;;
10729;SDS011;5416;59.258;18.128;2023-08-21T12:56:10;3.38;;;3.28;;
10729;SDS011;5416;59.258;18.128;2023-08-21T12:58:37;3.47;;;3.38;;
10729;SDS011;5416;59.258;18.128;2023-08-21T13:01:06;3.15;;;3.05;;
10729;SDS011;5416;59.258;18.128;2023-08-21T13:03:33;3.28;;;3.17;;
10729;SDS011;5416;59.258;18.128;2023-08-21T13:06:01;3.85;;;3.75;;
10729;SDS011;5416;59.258;18.128;2023-08-21T13:08:28;3.53;;;3.42;;
10729;SDS011;5416;59.258;18.128;2023-08-21T13:10:55;3.47;;;3.38;;
10729;SDS011;5416;59.258;18.128;2023-08-21T13:13:23;3.80;;;3.70;;
10729;SDS011;5416;59.258;18.128;2023-08-21T13:15:50;3.67;;;3.58;;
10729;SDS011;5416;59.258;18.128;2023-08-21T13:18:20;3.72;;;3.63;;
10729;SDS011;5416;59.258;18.128;2023-08-21T13:20:47;3.80;;;3.70;;
10729;SDS011;5416;59.258;18.128;2023-08-21T13:23:14;3.95;;;3.85;;
10729;SDS011;5416;59.258;18.128;2023-08-21T13:25:42;3.95;;;3.85;;
10729;SDS011;5416;59.258;18.128;2023-08-21T13:28:09;3.95;;;3.85;;
10729;SDS011;5416;59.258;18.128;2023-08-21T13:30:37;3.80;;;3.70;;
10729;SDS011;5416;59.258;18.128;2023-08-21T13:33:04;3.88;;;3.78;;
10729;SDS011;5416;59.258;18.128;2023-08-21T13:35:33;4.18;;;4.07;;
10729;SDS011;5416;59.258;18.128;2023-08-21T13:38:00;4.10;;;4.00;;
10729;SDS011;5416;59.258;18.128;2023-08-21T13:40:28;4.25;;;4.15;;
10729;SDS011;5416;59.258;18.128;2023-08-21T13:42:56;3.53;;;3.43;;
10729;SDS011;5416;59.258;18.128;2023-08-21T13:45:25;4.03;;;3.92;;
10729;SDS011;5416;59.258;18.128;2023-08-21T13:47:52;4.20;;;4.10;;
10729;SDS011;5416;59.258;18.128;2023-08-21T13:50:19;4.15;;;4.05;;
10729;SDS011;5416;59.258;18.128;2023-08-21T13:52:48;3.85;;;3.75;;
10729;SDS011;5416;59.258;18.128;2023-08-21T13:55:16;4.05;;;3.95;;
10729;SDS011;5416;59.258;18.128;2023-08-21T13:57:43;3.92;;;3.83;;
10729;SDS011;5416;59.258;18.128;2023-08-21T14:00:11;4.13;;;4.03;;
10729;SDS011;5416;59.258;18.128;2023-08-21T14:02:38;4.00;;;3.90;;
10729;SDS011;5416;59.258;18.128;2023-08-21T14:05:06;4.28;;;4.18;;
10729;SDS011;5416;59.258;18.128;2023-08-21T14:07:35;4.47;;;4.38;;
10729;SDS011;5416;59.258;18.128;2023-08-21T14:10:04;4.38;;;4.28;;
10729;SDS011;5416;59.258;18.128;2023-08-21T14:12:32;3.85;;;3.75;;
10729;SDS011;5416;59.258;18.128;2023-08-21T14:14:59;4.10;;;4.00;;
10729;SDS011;5416;59.258;18.128;2023-08-21T14:17:26;4.10;;;4.00;;
10729;SDS011;5416;59.258;18.128;2023-08-21T14:19:54;4.47;;;4.38;;
10729;SDS011;5416;59.258;18.128;2023-08-21T14:22:21;4.45;;;4.35;;
10729;SDS011;5416;59.258;18.128;2023-08-21T14:24:48;4.00;;;3.90;;
10729;SDS011;5416;59.258;18.128;2023-08-21T14:27:17;4.28;;;4.18;;
10729;SDS011;5416;59.258;18.128;2023-08-21T14:29:43;4.13;;;4.03;;
10729;SDS011;5416;59.258;18.128;2023-08-21T14:32:11;4.80;;;4.60;;
10729;SDS011;5416;59.258;18.128;2023-08-21T14:34:38;4.13;;;4.03;;
10729;SDS011;5416;59.258;18.128;2023-08-21T14:37:05;4.28;;;4.18;;
10729;SDS011;5416;59.258;18.128;2023-08-21T14:39:33;4.18;;;4.07;;
10729;SDS011;5416;59.258;18.128;2023-08-21T14:42:00;4.40;;;4.25;;
10729;SDS011;5416;59.258;18.128;2023-08-21T14:44:29;3.75;;;3.65;;
10729;SDS011;5416;59.258;18.128;2023-08-21T14:46:55;3.80;;;3.70;;
10729;SDS011;5416;59.258;18.128;2023-08-21T14:49:23;4.38;;;4.28;;
10729;SDS011;5416;59.258;18.128;2023-08-21T14:51:50;3.97;;;3.88;;
10729;SDS011;5416;59.258;18.128;2023-08-21T14:54:18;3.92;;;3.83;;